Brimfield, Massachusetts
Current Conditions -  °F | °C
As of 2:58 PM on Saturday 20 Dec 2014 (Local Time) from KCEF Reporting Station
Broken Clouds Broken Clouds  
Wind Chill: 30°   Ceiling: 3900
Heat Index: 34°   Visibility: 10mi
Dew Point: 20°   Wind: 5mph
Humidity: 56%   Direction: 260°W
Pressure: 30.25"   Gusts: NA
Location:  42.12°N, 72.2°W
Report Text: KCEF 201958Z AUTO 26004KT 10SM BKN039 01/M07 A3025 RMK AO2 SLP253 T00121067
Loading
Personal Weather Stations






























Interactive Weather Map New forecast layout! Learn more

10-Day Weather Forecast

Advertisements
Track Severe Weather on mobile